Terminal Aerodrome Forecast
Issued by NWS

Home | Current Version | Previous Version | Text Only | Print | Product List | Glossary On
Versions: 1 2 3 4 5 6 7 8 9 10 11 12 13 14 15 16
000
FTUS46 KSEW 011124
TAFBLI
TAF
KBLI 011124Z 0112/0212 16010KT P6SM -RA BKN020 OVC035
     FM011800 20008KT P6SM -SHRA BKN025 BKN050
     FM012300 20008KT P6SM SCT025 BKN045
     FM020900 20008KT P6SM BKN025 OVC040=

USA.gov is the U.S. government's official web portal to all federal, state and local government web resources and services.